map of BRX home
BRX - Airport
Location
City:  Barahona, Barahona, Dominican Republic
Name:Marķa Montez International Airport
ICAO:MDBH
IATA:BRX

Details
Type:Airport (Aerodrome, Airfield)
Use:International (customs port of entry)
Latitude:18°15'05"N (18.251464)
Longitude:71°07'13"W (-71.120399)
Datum:WGS 1984
Elevation:10 ft (3 m)
Variation:10.86°W (WMM2015 magnetic declination)
-0.08° annual change
Runways:1
Longest:9843 × 148 ft (3000 × 45 m), paved

Time
Time Zone:UTC-4
Local Time:

Weather
METAR:MDBH 122300Z 13013KT 9999 FEW021 SCT100 26/21 Q1016
TAF:MDBH 130400Z 1306/1406 00000KT 9999 FEW016CB SCT016 BKN080 PROB30 1306/1312 7000-RA FEW014CB BKN018 BKN070
BECMG 1311/1313 27005KT

Related Locations
Nearby:
Farthest:EXM: 12013 mi / 19333 km
Exmouth Gulf, WA, AU

Find:

   beyond  
but within

Other Information
Maps:
NOTAMs:
Links:
Sources:

  
  • flag of Dominican Republic
  

Sectional Chart

Flight Planning
at skyvector.com

Satellite Image

Google Maps Satellite view

 

Copyright © 2004-2018 Karl L. Swartz. All rights reserved.
The Great Circle Mapper name and logo are trademarks of the Great Circle Mapper.
All other trademarks mentioned herein belong to their respective owners.
Please see credits for attibutions and further copyright information.

  Follow gcmap on Facebook Follow gcmap on Twitter Follow gcmap on Google+ GCmap on LinkedIn

hCard Microformat

Geo Microformat